sensor_id;sensor_type;location;lat;lon;timestamp;temperature;humidity
20712;DHT22;10517;50.742;4.224;2024-01-11T00:01:27;-2.90;99.90
20712;DHT22;10517;50.742;4.224;2024-01-11T00:03:52;-2.80;99.90
20712;DHT22;10517;50.742;4.224;2024-01-11T00:06:18;-2.80;99.90
20712;DHT22;10517;50.742;4.224;2024-01-11T00:08:44;-2.80;99.90
20712;DHT22;10517;50.742;4.224;2024-01-11T00:11:10;-2.80;99.90
20712;DHT22;10517;50.742;4.224;2024-01-11T00:13:35;-2.70;99.90
20712;DHT22;10517;50.742;4.224;2024-01-11T00:16:01;-2.70;99.90
20712;DHT22;10517;50.742;4.224;2024-01-11T00:18:26;-2.70;99.90
20712;DHT22;10517;50.742;4.224;2024-01-11T00:20:52;-2.70;99.90
20712;DHT22;10517;50.742;4.224;2024-01-11T00:23:18;-2.70;99.90
20712;DHT22;10517;50.742;4.224;2024-01-11T00:25:43;-2.70;99.90
20712;DHT22;10517;50.742;4.224;2024-01-11T00:28:09;-2.70;99.90
20712;DHT22;10517;50.742;4.224;2024-01-11T00:30:34;-2.80;99.90
20712;DHT22;10517;50.742;4.224;2024-01-11T00:33:00;-2.80;99.90
20712;DHT22;10517;50.742;4.224;2024-01-11T00:35:26;-2.90;99.90
20712;DHT22;10517;50.742;4.224;2024-01-11T00:37:51;-2.90;99.90
20712;DHT22;10517;50.742;4.224;2024-01-11T00:40:17;-3.00;99.90
20712;DHT22;10517;50.742;4.224;2024-01-11T00:42:42;-3.00;99.90
20712;DHT22;10517;50.742;4.224;2024-01-11T00:45:08;-3.00;99.90
20712;DHT22;10517;50.742;4.224;2024-01-11T00:47:34;-3.00;99.90
20712;DHT22;10517;50.742;4.224;2024-01-11T00:49:59;-2.90;99.90
20712;DHT22;10517;50.742;4.224;2024-01-11T00:52:25;-2.90;99.90
20712;DHT22;10517;50.742;4.224;2024-01-11T00:54:51;-2.90;99.90
20712;DHT22;10517;50.742;4.224;2024-01-11T00:57:16;-2.90;99.90
20712;DHT22;10517;50.742;4.224;2024-01-11T00:59:42;-2.90;99.90
20712;DHT22;10517;50.742;4.224;2024-01-11T01:02:07;-2.90;99.90
20712;DHT22;10517;50.742;4.224;2024-01-11T01:04:33;-2.90;99.90
20712;DHT22;10517;50.742;4.224;2024-01-11T01:07:02;-3.00;99.90
20712;DHT22;10517;50.742;4.224;2024-01-11T01:09:28;-3.00;99.90
20712;DHT22;10517;50.742;4.224;2024-01-11T01:11:54;-3.00;99.90
20712;DHT22;10517;50.742;4.224;2024-01-11T01:14:19;-3.00;99.90
20712;DHT22;10517;50.742;4.224;2024-01-11T01:16:45;-3.00;99.90
20712;DHT22;10517;50.742;4.224;2024-01-11T01:19:10;-3.00;99.90
20712;DHT22;10517;50.742;4.224;2024-01-11T01:21:36;-3.10;99.90
20712;DHT22;10517;50.742;4.224;2024-01-11T01:24:02;-3.10;99.90
20712;DHT22;10517;50.742;4.224;2024-01-11T01:26:28;-3.10;99.90
20712;DHT22;10517;50.742;4.224;2024-01-11T01:28:53;-3.10;99.90
20712;DHT22;10517;50.742;4.224;2024-01-11T01:31:20;-3.10;99.90
20712;DHT22;10517;50.742;4.224;2024-01-11T01:33:46;-3.10;99.90
20712;DHT22;10517;50.742;4.224;2024-01-11T01:36:12;-3.20;99.90
20712;DHT22;10517;50.742;4.224;2024-01-11T01:38:37;-3.20;99.90
20712;DHT22;10517;50.742;4.224;2024-01-11T01:41:03;-3.20;99.90
20712;DHT22;10517;50.742;4.224;2024-01-11T01:43:29;-3.30;99.90
20712;DHT22;10517;50.742;4.224;2024-01-11T01:45:54;-3.30;99.90
20712;DHT22;10517;50.742;4.224;2024-01-11T01:48:21;-3.30;99.90
20712;DHT22;10517;50.742;4.224;2024-01-11T01:50:47;-3.40;99.90
20712;DHT22;10517;50.742;4.224;2024-01-11T01:53:19;-3.40;99.90
20712;DHT22;10517;50.742;4.224;2024-01-11T01:55:47;-3.40;99.90
20712;DHT22;10517;50.742;4.224;2024-01-11T01:58:14;-3.40;99.90
20712;DHT22;10517;50.742;4.224;2024-01-11T02:00:41;-3.40;99.90
20712;DHT22;10517;50.742;4.224;2024-01-11T02:03:08;-3.40;99.90
20712;DHT22;10517;50.742;4.224;2024-01-11T02:05:34;-3.40;99.90
20712;DHT22;10517;50.742;4.224;2024-01-11T02:08:03;-3.40;99.90
20712;DHT22;10517;50.742;4.224;2024-01-11T02:10:37;-3.40;99.90
20712;DHT22;10517;50.742;4.224;2024-01-11T02:13:02;-3.40;99.90
20712;DHT22;10517;50.742;4.224;2024-01-11T02:15:28;-3.30;99.90
20712;DHT22;10517;50.742;4.224;2024-01-11T02:17:54;-3.30;99.90
20712;DHT22;10517;50.742;4.224;2024-01-11T02:20:19;-3.40;99.90
20712;DHT22;10517;50.742;4.224;2024-01-11T02:22:53;-3.30;99.90
20712;DHT22;10517;50.742;4.224;2024-01-11T02:25:21;-3.40;99.90
20712;DHT22;10517;50.742;4.224;2024-01-11T02:27:50;-3.40;99.90
20712;DHT22;10517;50.742;4.224;2024-01-11T02:30:17;-3.40;99.90
20712;DHT22;10517;50.742;4.224;2024-01-11T02:32:48;-3.30;99.90
20712;DHT22;10517;50.742;4.224;2024-01-11T02:35:18;-3.30;99.90
20712;DHT22;10517;50.742;4.224;2024-01-11T02:37:45;-3.40;99.90
20712;DHT22;10517;50.742;4.224;2024-01-11T02:40:13;-3.40;99.90
20712;DHT22;10517;50.742;4.224;2024-01-11T02:42:39;-3.40;99.90
20712;DHT22;10517;50.742;4.224;2024-01-11T02:45:05;-3.40;99.90
20712;DHT22;10517;50.742;4.224;2024-01-11T02:47:31;-3.40;99.90
20712;DHT22;10517;50.742;4.224;2024-01-11T02:49:56;-3.30;99.90
20712;DHT22;10517;50.742;4.224;2024-01-11T02:52:25;-3.30;99.90
20712;DHT22;10517;50.742;4.224;2024-01-11T02:54:50;-3.30;99.90
20712;DHT22;10517;50.742;4.224;2024-01-11T02:57:16;-3.40;99.90
20712;DHT22;10517;50.742;4.224;2024-01-11T02:59:43;-3.40;99.90
20712;DHT22;10517;50.742;4.224;2024-01-11T03:02:08;-3.40;99.90
20712;DHT22;10517;50.742;4.224;2024-01-11T03:04:34;-3.40;99.90
20712;DHT22;10517;50.742;4.224;2024-01-11T03:07:00;-3.30;99.90
20712;DHT22;10517;50.742;4.224;2024-01-11T03:09:25;-3.40;99.90
20712;DHT22;10517;50.742;4.224;2024-01-11T03:11:51;-3.50;99.90
20712;DHT22;10517;50.742;4.224;2024-01-11T03:14:16;-3.50;99.90
20712;DHT22;10517;50.742;4.224;2024-01-11T03:16:42;-3.50;99.90
20712;DHT22;10517;50.742;4.224;2024-01-11T03:19:08;-3.60;99.90
20712;DHT22;10517;50.742;4.224;2024-01-11T03:21:34;-3.60;99.90
20712;DHT22;10517;50.742;4.224;2024-01-11T03:23:59;-3.60;99.90
20712;DHT22;10517;50.742;4.224;2024-01-11T03:26:25;-3.70;99.90
20712;DHT22;10517;50.742;4.224;2024-01-11T03:28:51;-3.70;99.90
20712;DHT22;10517;50.742;4.224;2024-01-11T03:31:17;-3.60;99.90
20712;DHT22;10517;50.742;4.224;2024-01-11T03:33:42;-3.60;99.90
20712;DHT22;10517;50.742;4.224;2024-01-11T03:36:11;-3.50;99.90
20712;DHT22;10517;50.742;4.224;2024-01-11T03:38:37;-3.50;99.90
20712;DHT22;10517;50.742;4.224;2024-01-11T03:41:08;-3.70;99.90
20712;DHT22;10517;50.742;4.224;2024-01-11T03:43:35;-3.70;99.90
20712;DHT22;10517;50.742;4.224;2024-01-11T03:46:01;-3.70;99.90
20712;DHT22;10517;50.742;4.224;2024-01-11T03:48:27;-3.60;99.90
20712;DHT22;10517;50.742;4.224;2024-01-11T03:50:52;-3.70;99.90
20712;DHT22;10517;50.742;4.224;2024-01-11T03:53:18;-3.70;99.90
20712;DHT22;10517;50.742;4.224;2024-01-11T03:55:43;-3.90;99.90
20712;DHT22;10517;50.742;4.224;2024-01-11T03:58:09;-4.00;99.90
20712;DHT22;10517;50.742;4.224;2024-01-11T04:00:34;-4.10;99.90
20712;DHT22;10517;50.742;4.224;2024-01-11T04:03:00;-4.20;99.90
20712;DHT22;10517;50.742;4.224;2024-01-11T04:05:27;-4.20;99.90
20712;DHT22;10517;50.742;4.224;2024-01-11T04:07:53;-4.30;99.90
20712;DHT22;10517;50.742;4.224;2024-01-11T04:10:18;-4.40;99.90
20712;DHT22;10517;50.742;4.224;2024-01-11T04:12:44;-4.40;99.90
20712;DHT22;10517;50.742;4.224;2024-01-11T04:15:12;-4.40;99.90
20712;DHT22;10517;50.742;4.224;2024-01-11T04:17:38;-4.40;99.90
20712;DHT22;10517;50.742;4.224;2024-01-11T04:20:06;-4.40;99.90
20712;DHT22;10517;50.742;4.224;2024-01-11T04:22:32;-4.40;99.90
20712;DHT22;10517;50.742;4.224;2024-01-11T04:24:57;-4.50;99.90
20712;DHT22;10517;50.742;4.224;2024-01-11T04:27:23;-4.60;99.90
20712;DHT22;10517;50.742;4.224;2024-01-11T04:29:48;-4.60;99.90
20712;DHT22;10517;50.742;4.224;2024-01-11T04:32:15;-4.60;99.90
20712;DHT22;10517;50.742;4.224;2024-01-11T04:34:40;-4.70;99.90
20712;DHT22;10517;50.742;4.224;2024-01-11T04:37:06;-4.70;99.90
20712;DHT22;10517;50.742;4.224;2024-01-11T04:39:32;-4.60;99.90
20712;DHT22;10517;50.742;4.224;2024-01-11T04:41:59;-4.60;99.90
20712;DHT22;10517;50.742;4.224;2024-01-11T04:44:26;-4.70;99.90
20712;DHT22;10517;50.742;4.224;2024-01-11T04:46:51;-4.70;99.90
20712;DHT22;10517;50.742;4.224;2024-01-11T04:49:17;-4.80;99.90
20712;DHT22;10517;50.742;4.224;2024-01-11T04:51:42;-4.80;99.90
20712;DHT22;10517;50.742;4.224;2024-01-11T04:54:08;-4.70;99.90
20712;DHT22;10517;50.742;4.224;2024-01-11T04:56:33;-4.70;99.90
20712;DHT22;10517;50.742;4.224;2024-01-11T04:58:59;-4.70;99.90
20712;DHT22;10517;50.742;4.224;2024-01-11T05:01:25;-4.70;99.90
20712;DHT22;10517;50.742;4.224;2024-01-11T05:03:50;-4.70;99.90
20712;DHT22;10517;50.742;4.224;2024-01-11T05:06:20;-4.60;99.90
20712;DHT22;10517;50.742;4.224;2024-01-11T05:08:46;-4.50;99.90
20712;DHT22;10517;50.742;4.224;2024-01-11T05:11:20;-4.50;99.90
20712;DHT22;10517;50.742;4.224;2024-01-11T05:13:46;-4.40;99.90
20712;DHT22;10517;50.742;4.224;2024-01-11T05:16:26;-4.40;99.90
20712;DHT22;10517;50.742;4.224;2024-01-11T05:18:53;-4.30;99.90
20712;DHT22;10517;50.742;4.224;2024-01-11T05:21:19;-4.30;99.90
20712;DHT22;10517;50.742;4.224;2024-01-11T05:23:45;-4.30;99.90
20712;DHT22;10517;50.742;4.224;2024-01-11T05:26:12;-4.20;99.90
20712;DHT22;10517;50.742;4.224;2024-01-11T05:28:38;-4.30;99.90
20712;DHT22;10517;50.742;4.224;2024-01-11T05:31:14;-4.30;99.90
20712;DHT22;10517;50.742;4.224;2024-01-11T05:33:43;-4.40;99.90
20712;DHT22;10517;50.742;4.224;2024-01-11T05:36:08;-4.30;99.90
20712;DHT22;10517;50.742;4.224;2024-01-11T05:38:34;-4.30;99.90
20712;DHT22;10517;50.742;4.224;2024-01-11T05:41:01;-4.30;99.90
20712;DHT22;10517;50.742;4.224;2024-01-11T05:43:27;-4.30;99.90
20712;DHT22;10517;50.742;4.224;2024-01-11T05:45:53;-4.30;99.90
20712;DHT22;10517;50.742;4.224;2024-01-11T05:48:18;-4.30;99.90
20712;DHT22;10517;50.742;4.224;2024-01-11T05:50:44;-4.30;99.90
20712;DHT22;10517;50.742;4.224;2024-01-11T05:53:13;-4.40;99.90
20712;DHT22;10517;50.742;4.224;2024-01-11T05:55:39;-4.40;99.90
20712;DHT22;10517;50.742;4.224;2024-01-11T05:58:05;-4.40;99.90
20712;DHT22;10517;50.742;4.224;2024-01-11T06:00:31;-4.40;99.90
20712;DHT22;10517;50.742;4.224;2024-01-11T06:02:56;-4.40;99.90
20712;DHT22;10517;50.742;4.224;2024-01-11T06:05:22;-4.30;99.90
20712;DHT22;10517;50.742;4.224;2024-01-11T06:07:48;-4.30;99.90
20712;DHT22;10517;50.742;4.224;2024-01-11T06:10:14;-4.30;99.90
20712;DHT22;10517;50.742;4.224;2024-01-11T06:12:43;-4.40;99.90
20712;DHT22;10517;50.742;4.224;2024-01-11T06:15:09;-4.30;99.90
20712;DHT22;10517;50.742;4.224;2024-01-11T06:17:35;-4.30;99.90
20712;DHT22;10517;50.742;4.224;2024-01-11T06:20:01;-4.30;99.90
20712;DHT22;10517;50.742;4.224;2024-01-11T06:22:27;-4.30;99.90
20712;DHT22;10517;50.742;4.224;2024-01-11T06:24:53;-4.30;99.90
20712;DHT22;10517;50.742;4.224;2024-01-11T06:27:18;-4.30;99.90
20712;DHT22;10517;50.742;4.224;2024-01-11T06:29:44;-4.30;99.90
20712;DHT22;10517;50.742;4.224;2024-01-11T06:32:09;-4.30;99.90
20712;DHT22;10517;50.742;4.224;2024-01-11T06:34:35;-4.30;99.90
20712;DHT22;10517;50.742;4.224;2024-01-11T06:37:02;-4.30;99.90
20712;DHT22;10517;50.742;4.224;2024-01-11T06:39:28;-4.30;99.90
20712;DHT22;10517;50.742;4.224;2024-01-11T06:41:55;-4.30;99.90
20712;DHT22;10517;50.742;4.224;2024-01-11T06:44:20;-4.20;99.90
20712;DHT22;10517;50.742;4.224;2024-01-11T06:46:46;-4.30;99.90
20712;DHT22;10517;50.742;4.224;2024-01-11T06:49:12;-4.30;99.90
20712;DHT22;10517;50.742;4.224;2024-01-11T06:51:38;-4.30;99.90
20712;DHT22;10517;50.742;4.224;2024-01-11T06:54:04;-4.30;99.90
20712;DHT22;10517;50.742;4.224;2024-01-11T06:56:30;-4.30;99.90
20712;DHT22;10517;50.742;4.224;2024-01-11T06:58:56;-4.40;99.90
20712;DHT22;10517;50.742;4.224;2024-01-11T07:01:21;-4.40;99.90
20712;DHT22;10517;50.742;4.224;2024-01-11T07:03:48;-4.40;99.90
20712;DHT22;10517;50.742;4.224;2024-01-11T07:06:13;-4.50;99.90
20712;DHT22;10517;50.742;4.224;2024-01-11T07:08:39;-4.50;99.90
20712;DHT22;10517;50.742;4.224;2024-01-11T07:11:05;-4.50;99.90
20712;DHT22;10517;50.742;4.224;2024-01-11T07:13:31;-4.60;99.90
20712;DHT22;10517;50.742;4.224;2024-01-11T07:15:57;-4.60;99.90
20712;DHT22;10517;50.742;4.224;2024-01-11T07:18:24;-4.60;99.90
20712;DHT22;10517;50.742;4.224;2024-01-11T07:20:50;-4.50;99.90
20712;DHT22;10517;50.742;4.224;2024-01-11T07:23:16;-4.60;99.90
20712;DHT22;10517;50.742;4.224;2024-01-11T07:25:42;-4.60;99.90
20712;DHT22;10517;50.742;4.224;2024-01-11T07:28:08;-4.60;99.90
20712;DHT22;10517;50.742;4.224;2024-01-11T07:30:34;-4.60;99.90
20712;DHT22;10517;50.742;4.224;2024-01-11T07:32:59;-4.70;99.90
20712;DHT22;10517;50.742;4.224;2024-01-11T07:35:25;-4.70;99.90
20712;DHT22;10517;50.742;4.224;2024-01-11T07:37:51;-4.60;99.90
20712;DHT22;10517;50.742;4.224;2024-01-11T07:40:16;-4.60;99.90
20712;DHT22;10517;50.742;4.224;2024-01-11T07:42:42;-4.60;99.90
20712;DHT22;10517;50.742;4.224;2024-01-11T07:45:09;-4.60;99.90
20712;DHT22;10517;50.742;4.224;2024-01-11T07:47:39;-4.70;99.90
20712;DHT22;10517;50.742;4.224;2024-01-11T07:50:08;-4.70;99.90
20712;DHT22;10517;50.742;4.224;2024-01-11T07:52:40;-4.70;99.90
20712;DHT22;10517;50.742;4.224;2024-01-11T07:55:09;-4.70;99.90
20712;DHT22;10517;50.742;4.224;2024-01-11T07:57:38;-4.70;99.90
20712;DHT22;10517;50.742;4.224;2024-01-11T08:00:05;-4.70;99.90
20712;DHT22;10517;50.742;4.224;2024-01-11T08:02:32;-4.70;99.90
20712;DHT22;10517;50.742;4.224;2024-01-11T08:04:58;-4.70;99.90
20712;DHT22;10517;50.742;4.224;2024-01-11T08:07:28;-4.80;99.90
20712;DHT22;10517;50.742;4.224;2024-01-11T08:09:54;-4.70;99.90
20712;DHT22;10517;50.742;4.224;2024-01-11T08:12:19;-4.70;99.90
20712;DHT22;10517;50.742;4.224;2024-01-11T08:14:45;-4.70;99.90
20712;DHT22;10517;50.742;4.224;2024-01-11T08:17:12;-4.60;99.90
20712;DHT22;10517;50.742;4.224;2024-01-11T08:19:39;-4.60;99.90
20712;DHT22;10517;50.742;4.224;2024-01-11T08:22:05;-4.60;99.90
20712;DHT22;10517;50.742;4.224;2024-01-11T08:24:31;-4.60;99.90
20712;DHT22;10517;50.742;4.224;2024-01-11T08:26:56;-4.60;99.90
20712;DHT22;10517;50.742;4.224;2024-01-11T08:29:23;-4.50;99.90
20712;DHT22;10517;50.742;4.224;2024-01-11T08:31:48;-4.50;99.90
20712;DHT22;10517;50.742;4.224;2024-01-11T08:34:14;-4.50;99.90
20712;DHT22;10517;50.742;4.224;2024-01-11T08:36:40;-4.50;99.90
20712;DHT22;10517;50.742;4.224;2024-01-11T08:39:06;-4.50;99.90
20712;DHT22;10517;50.742;4.224;2024-01-11T08:41:33;-4.40;99.90
20712;DHT22;10517;50.742;4.224;2024-01-11T08:43:59;-4.30;99.90
20712;DHT22;10517;50.742;4.224;2024-01-11T08:46:25;-4.30;99.90
20712;DHT22;10517;50.742;4.224;2024-01-11T08:48:52;-4.30;99.90
20712;DHT22;10517;50.742;4.224;2024-01-11T08:51:18;-4.20;99.90
20712;DHT22;10517;50.742;4.224;2024-01-11T08:53:43;-4.10;99.90
20712;DHT22;10517;50.742;4.224;2024-01-11T08:56:09;-4.10;99.90
20712;DHT22;10517;50.742;4.224;2024-01-11T08:58:35;-4.10;99.90
20712;DHT22;10517;50.742;4.224;2024-01-11T09:01:02;-4.00;99.90
20712;DHT22;10517;50.742;4.224;2024-01-11T09:03:28;-4.00;99.90
20712;DHT22;10517;50.742;4.224;2024-01-11T09:05:54;-3.90;99.90
20712;DHT22;10517;50.742;4.224;2024-01-11T09:08:22;-3.70;99.90
20712;DHT22;10517;50.742;4.224;2024-01-11T09:10:48;-3.70;99.90
20712;DHT22;10517;50.742;4.224;2024-01-11T09:13:14;-3.70;99.90
20712;DHT22;10517;50.742;4.224;2024-01-11T09:15:41;-3.70;99.90
20712;DHT22;10517;50.742;4.224;2024-01-11T09:18:07;-3.60;99.90
20712;DHT22;10517;50.742;4.224;2024-01-11T09:20:32;-3.60;99.90
20712;DHT22;10517;50.742;4.224;2024-01-11T09:22:59;-3.60;99.90
20712;DHT22;10517;50.742;4.224;2024-01-11T09:25:24;-3.60;99.90
20712;DHT22;10517;50.742;4.224;2024-01-11T09:27:50;-3.60;99.90
20712;DHT22;10517;50.742;4.224;2024-01-11T09:30:16;-3.50;99.90
20712;DHT22;10517;50.742;4.224;2024-01-11T09:32:41;-3.40;99.90
20712;DHT22;10517;50.742;4.224;2024-01-11T09:35:07;-3.40;99.90
20712;DHT22;10517;50.742;4.224;2024-01-11T09:37:34;-3.40;99.90
20712;DHT22;10517;50.742;4.224;2024-01-11T09:39:59;-3.30;99.90
20712;DHT22;10517;50.742;4.224;2024-01-11T09:42:26;-3.20;99.90
20712;DHT22;10517;50.742;4.224;2024-01-11T09:44:54;-3.20;99.90
20712;DHT22;10517;50.742;4.224;2024-01-11T09:47:21;-3.00;99.90
20712;DHT22;10517;50.742;4.224;2024-01-11T09:49:49;-3.00;99.90
20712;DHT22;10517;50.742;4.224;2024-01-11T09:52:20;-2.90;99.90
20712;DHT22;10517;50.742;4.224;2024-01-11T09:54:47;-2.80;99.90
20712;DHT22;10517;50.742;4.224;2024-01-11T09:57:16;-2.70;99.90
20712;DHT22;10517;50.742;4.224;2024-01-11T09:59:45;-2.70;99.90
20712;DHT22;10517;50.742;4.224;2024-01-11T10:02:11;-2.70;99.90
20712;DHT22;10517;50.742;4.224;2024-01-11T10:04:37;-2.60;99.90
20712;DHT22;10517;50.742;4.224;2024-01-11T10:07:04;-2.70;99.90
20712;DHT22;10517;50.742;4.224;2024-01-11T10:09:31;-2.60;99.90
20712;DHT22;10517;50.742;4.224;2024-01-11T10:11:57;-2.60;99.90
20712;DHT22;10517;50.742;4.224;2024-01-11T10:14:22;-2.60;99.90
20712;DHT22;10517;50.742;4.224;2024-01-11T10:16:48;-2.60;99.90
20712;DHT22;10517;50.742;4.224;2024-01-11T10:19:14;-2.50;99.90
20712;DHT22;10517;50.742;4.224;2024-01-11T10:21:41;-2.40;99.90
20712;DHT22;10517;50.742;4.224;2024-01-11T10:24:07;-2.30;99.90
20712;DHT22;10517;50.742;4.224;2024-01-11T10:26:33;-2.20;99.90
20712;DHT22;10517;50.742;4.224;2024-01-11T10:29:00;-2.20;99.90
20712;DHT22;10517;50.742;4.224;2024-01-11T10:31:28;-2.20;99.90
20712;DHT22;10517;50.742;4.224;2024-01-11T10:33:54;-2.10;99.90
20712;DHT22;10517;50.742;4.224;2024-01-11T10:36:20;-2.10;99.90
20712;DHT22;10517;50.742;4.224;2024-01-11T10:38:46;-1.90;99.90
20712;DHT22;10517;50.742;4.224;2024-01-11T10:41:13;-1.80;99.90
20712;DHT22;10517;50.742;4.224;2024-01-11T10:43:43;-1.80;99.90
20712;DHT22;10517;50.742;4.224;2024-01-11T10:46:11;-1.70;99.90
20712;DHT22;10517;50.742;4.224;2024-01-11T10:48:38;-1.60;99.90
20712;DHT22;10517;50.742;4.224;2024-01-11T10:51:08;-1.60;99.90
20712;DHT22;10517;50.742;4.224;2024-01-11T10:56:06;-1.40;99.90
20712;DHT22;10517;50.742;4.224;2024-01-11T10:58:33;-1.40;99.90
20712;DHT22;10517;50.742;4.224;2024-01-11T11:01:01;-1.30;99.90
20712;DHT22;10517;50.742;4.224;2024-01-11T11:03:29;-1.30;99.90
20712;DHT22;10517;50.742;4.224;2024-01-11T11:05:58;-1.20;99.90
20712;DHT22;10517;50.742;4.224;2024-01-11T11:08:24;-1.10;99.90
20712;DHT22;10517;50.742;4.224;2024-01-11T11:11:10;-1.10;99.90
20712;DHT22;10517;50.742;4.224;2024-01-11T11:13:37;-1.10;99.90
20712;DHT22;10517;50.742;4.224;2024-01-11T11:16:04;-1.00;99.90
20712;DHT22;10517;50.742;4.224;2024-01-11T11:18:30;-1.00;99.90
20712;DHT22;10517;50.742;4.224;2024-01-11T11:20:57;-1.00;99.90
20712;DHT22;10517;50.742;4.224;2024-01-11T11:23:23;-0.90;99.90
20712;DHT22;10517;50.742;4.224;2024-01-11T11:25:49;-0.80;99.90
20712;DHT22;10517;50.742;4.224;2024-01-11T11:28:17;-0.70;99.90
20712;DHT22;10517;50.742;4.224;2024-01-11T11:30:44;-0.70;99.90
20712;DHT22;10517;50.742;4.224;2024-01-11T11:33:18;-0.60;99.90
20712;DHT22;10517;50.742;4.224;2024-01-11T11:35:48;-0.50;99.90
20712;DHT22;10517;50.742;4.224;2024-01-11T11:38:28;-0.40;99.90
20712;DHT22;10517;50.742;4.224;2024-01-11T11:40:56;-0.40;99.90
20712;DHT22;10517;50.742;4.224;2024-01-11T11:43:22;-0.30;99.90
20712;DHT22;10517;50.742;4.224;2024-01-11T11:45:50;-0.30;99.90
20712;DHT22;10517;50.742;4.224;2024-01-11T11:51:10;-0.20;99.90
20712;DHT22;10517;50.742;4.224;2024-01-11T11:53:37;-0.10;99.90
20712;DHT22;10517;50.742;4.224;2024-01-11T11:56:04;-0.10;99.90
20712;DHT22;10517;50.742;4.224;2024-01-11T11:58:31;-0.10;99.90
20712;DHT22;10517;50.742;4.224;2024-01-11T12:00:58;-0.10;99.90
20712;DHT22;10517;50.742;4.224;2024-01-11T12:03:31;0.00;99.90
20712;DHT22;10517;50.742;4.224;2024-01-11T12:05:58;0.00;99.90
20712;DHT22;10517;50.742;4.224;2024-01-11T12:08:24;0.10;99.90
20712;DHT22;10517;50.742;4.224;2024-01-11T12:10:51;0.00;99.90
20712;DHT22;10517;50.742;4.224;2024-01-11T12:13:18;0.10;99.90
20712;DHT22;10517;50.742;4.224;2024-01-11T12:15:44;0.10;99.90
20712;DHT22;10517;50.742;4.224;2024-01-11T12:18:09;0.20;99.90
20712;DHT22;10517;50.742;4.224;2024-01-11T12:20:35;0.20;99.90
20712;DHT22;10517;50.742;4.224;2024-01-11T12:23:01;0.10;99.90
20712;DHT22;10517;50.742;4.224;2024-01-11T12:25:30;0.20;99.90
20712;DHT22;10517;50.742;4.224;2024-01-11T12:27:56;0.30;99.90
20712;DHT22;10517;50.742;4.224;2024-01-11T12:30:22;0.30;99.90
20712;DHT22;10517;50.742;4.224;2024-01-11T12:32:49;0.30;99.90
20712;DHT22;10517;50.742;4.224;2024-01-11T12:35:15;0.30;99.90
20712;DHT22;10517;50.742;4.224;2024-01-11T12:37:41;0.30;99.90
20712;DHT22;10517;50.742;4.224;2024-01-11T12:40:17;0.30;99.90
20712;DHT22;10517;50.742;4.224;2024-01-11T12:42:43;0.40;99.90
20712;DHT22;10517;50.742;4.224;2024-01-11T12:45:09;0.50;99.90
20712;DHT22;10517;50.742;4.224;2024-01-11T12:47:34;0.50;99.90
20712;DHT22;10517;50.742;4.224;2024-01-11T12:50:00;0.50;99.90
20712;DHT22;10517;50.742;4.224;2024-01-11T12:52:26;0.60;99.90
20712;DHT22;10517;50.742;4.224;2024-01-11T12:54:52;0.60;99.90
20712;DHT22;10517;50.742;4.224;2024-01-11T12:57:19;0.70;99.90
20712;DHT22;10517;50.742;4.224;2024-01-11T12:59:46;0.70;99.90
20712;DHT22;10517;50.742;4.224;2024-01-11T13:02:11;0.80;99.90
20712;DHT22;10517;50.742;4.224;2024-01-11T13:04:40;0.80;99.90
20712;DHT22;10517;50.742;4.224;2024-01-11T13:07:07;0.80;99.90
20712;DHT22;10517;50.742;4.224;2024-01-11T13:09:33;0.80;99.90
20712;DHT22;10517;50.742;4.224;2024-01-11T13:11:59;0.90;99.90
20712;DHT22;10517;50.742;4.224;2024-01-11T13:14:25;0.90;99.90
20712;DHT22;10517;50.742;4.224;2024-01-11T13:16:51;0.90;99.90
20712;DHT22;10517;50.742;4.224;2024-01-11T13:19:16;0.90;99.90
20712;DHT22;10517;50.742;4.224;2024-01-11T13:21:42;1.00;99.90
20712;DHT22;10517;50.742;4.224;2024-01-11T13:24:08;1.10;99.90
20712;DHT22;10517;50.742;4.224;2024-01-11T13:26:34;1.10;99.90
20712;DHT22;10517;50.742;4.224;2024-01-11T13:29:02;1.20;99.90
20712;DHT22;10517;50.742;4.224;2024-01-11T13:31:28;1.30;99.90
20712;DHT22;10517;50.742;4.224;2024-01-11T13:33:53;1.60;99.90
20712;DHT22;10517;50.742;4.224;2024-01-11T13:36:22;1.70;99.90
20712;DHT22;10517;50.742;4.224;2024-01-11T13:38:48;1.80;99.90
20712;DHT22;10517;50.742;4.224;2024-01-11T13:41:16;1.80;99.90
20712;DHT22;10517;50.742;4.224;2024-01-11T13:43:43;1.70;99.90
20712;DHT22;10517;50.742;4.224;2024-01-11T13:46:11;1.80;99.90
20712;DHT22;10517;50.742;4.224;2024-01-11T13:48:39;1.90;99.90
20712;DHT22;10517;50.742;4.224;2024-01-11T13:51:05;2.00;99.90
20712;DHT22;10517;50.742;4.224;2024-01-11T13:53:32;2.10;99.90
20712;DHT22;10517;50.742;4.224;2024-01-11T13:55:58;2.20;99.90
20712;DHT22;10517;50.742;4.224;2024-01-11T13:58:24;2.20;99.90
20712;DHT22;10517;50.742;4.224;2024-01-11T14:00:49;2.40;99.90
20712;DHT22;10517;50.742;4.224;2024-01-11T14:03:15;2.40;99.90
20712;DHT22;10517;50.742;4.224;2024-01-11T14:05:41;2.30;99.90
20712;DHT22;10517;50.742;4.224;2024-01-11T14:08:07;2.20;99.90
20712;DHT22;10517;50.742;4.224;2024-01-11T14:10:34;2.30;99.90
20712;DHT22;10517;50.742;4.224;2024-01-11T14:13:00;2.20;99.90
20712;DHT22;10517;50.742;4.224;2024-01-11T14:15:27;2.30;99.90
20712;DHT22;10517;50.742;4.224;2024-01-11T14:17:52;2.60;99.90
20712;DHT22;10517;50.742;4.224;2024-01-11T14:20:18;2.50;99.90
20712;DHT22;10517;50.742;4.224;2024-01-11T14:22:45;2.40;99.90
20712;DHT22;10517;50.742;4.224;2024-01-11T14:25:20;2.30;99.90
20712;DHT22;10517;50.742;4.224;2024-01-11T14:27:50;2.40;99.90
20712;DHT22;10517;50.742;4.224;2024-01-11T14:30:16;2.30;99.90
20712;DHT22;10517;50.742;4.224;2024-01-11T14:32:41;2.40;99.90
20712;DHT22;10517;50.742;4.224;2024-01-11T14:35:09;2.40;99.90
20712;DHT22;10517;50.742;4.224;2024-01-11T14:37:36;2.30;99.90
20712;DHT22;10517;50.742;4.224;2024-01-11T14:40:03;2.20;99.90
20712;DHT22;10517;50.742;4.224;2024-01-11T14:42:29;2.10;99.90
20712;DHT22;10517;50.742;4.224;2024-01-11T14:44:55;2.10;99.90
20712;DHT22;10517;50.742;4.224;2024-01-11T14:47:21;2.10;99.90
20712;DHT22;10517;50.742;4.224;2024-01-11T14:49:47;2.20;99.90
20712;DHT22;10517;50.742;4.224;2024-01-11T14:52:13;2.40;99.90
20712;DHT22;10517;50.742;4.224;2024-01-11T14:54:41;2.20;99.90
20712;DHT22;10517;50.742;4.224;2024-01-11T14:57:07;2.00;99.90
20712;DHT22;10517;50.742;4.224;2024-01-11T14:59:33;1.70;99.90
20712;DHT22;10517;50.742;4.224;2024-01-11T15:02:00;1.40;99.90
20712;DHT22;10517;50.742;4.224;2024-01-11T15:04:25;1.30;99.90
20712;DHT22;10517;50.742;4.224;2024-01-11T15:06:51;1.30;99.90
20712;DHT22;10517;50.742;4.224;2024-01-11T15:09:17;1.30;99.90
20712;DHT22;10517;50.742;4.224;2024-01-11T15:11:43;1.20;99.90
20712;DHT22;10517;50.742;4.224;2024-01-11T15:14:09;1.10;99.90
20712;DHT22;10517;50.742;4.224;2024-01-11T15:16:38;1.10;99.90
20712;DHT22;10517;50.742;4.224;2024-01-11T15:19:04;1.10;99.90
20712;DHT22;10517;50.742;4.224;2024-01-11T15:21:30;1.10;99.90
20712;DHT22;10517;50.742;4.224;2024-01-11T15:23:57;1.10;99.90
20712;DHT22;10517;50.742;4.224;2024-01-11T15:26:25;1.00;99.90
20712;DHT22;10517;50.742;4.224;2024-01-11T15:28:51;1.00;99.90
20712;DHT22;10517;50.742;4.224;2024-01-11T15:31:16;1.00;99.90
20712;DHT22;10517;50.742;4.224;2024-01-11T15:33:42;0.90;99.90
20712;DHT22;10517;50.742;4.224;2024-01-11T15:36:08;0.90;99.90